createdAt,value
2022-11-05T00:00:44.234Z,11.28
2022-11-05T00:01:44.286Z,11.25
2022-11-05T00:02:44.213Z,11.28
2022-11-05T00:03:44.268Z,11.30
2022-11-05T00:04:44.195Z,11.30
2022-11-05T00:05:44.178Z,11.31
2022-11-05T00:06:44.172Z,11.31
2022-11-05T00:07:44.154Z,11.31
2022-11-05T00:08:44.154Z,11.30
2022-11-05T00:09:44.144Z,11.30
2022-11-05T00:10:44.149Z,11.25
2022-11-05T00:11:44.108Z,11.18
2022-11-05T00:12:44.101Z,11.15
2022-11-05T00:13:44.091Z,11.12
2022-11-05T00:14:44.075Z,11.12
2022-11-05T00:15:44.063Z,11.10
2022-11-05T00:16:44.054Z,11.10
2022-11-05T00:17:44.052Z,11.10
2022-11-05T00:18:44.033Z,11.12
2022-11-05T00:19:44.019Z,11.15
2022-11-05T00:20:44.010Z,11.15
2022-11-05T00:21:44.004Z,11.14
2022-11-05T00:22:43.989Z,11.18
2022-11-05T00:23:43.975Z,11.22
2022-11-05T00:24:43.967Z,11.22
2022-11-05T00:25:43.955Z,11.22
2022-11-05T00:26:44.111Z,11.22
2022-11-05T00:27:43.928Z,11.19
2022-11-05T00:28:44.037Z,11.19
2022-11-05T00:29:43.905Z,11.23
2022-11-05T00:30:43.901Z,11.19
2022-11-05T00:31:43.884Z,11.19
2022-11-05T00:32:43.879Z,11.19
2022-11-05T00:33:43.862Z,11.18
2022-11-05T00:34:43.853Z,11.18
2022-11-05T00:35:43.839Z,11.17
2022-11-05T00:36:43.829Z,11.15
2022-11-05T00:37:49.676Z,11.17
2022-11-05T00:38:43.807Z,11.14
2022-11-05T00:39:43.795Z,11.14
2022-11-05T00:40:43.786Z,11.15
2022-11-05T00:41:43.772Z,11.15
2022-11-05T00:42:43.790Z,11.14
2022-11-05T00:43:43.749Z,11.15
2022-11-05T00:44:43.739Z,11.15
2022-11-05T00:45:43.726Z,11.15
2022-11-05T00:46:43.719Z,11.15
2022-11-05T00:47:43.704Z,11.14
2022-11-05T00:48:43.696Z,11.15
2022-11-05T00:49:43.681Z,11.17
2022-11-05T00:50:43.669Z,11.17
2022-11-05T00:51:43.658Z,11.14
2022-11-05T00:52:43.648Z,11.14
2022-11-05T00:53:43.639Z,11.11
2022-11-05T00:54:43.631Z,11.11
2022-11-05T00:55:43.618Z,11.11
2022-11-05T00:56:43.609Z,11.11
2022-11-05T00:57:43.596Z,11.08
2022-11-05T00:58:43.606Z,11.10
2022-11-05T00:59:43.592Z,11.11
2022-11-05T01:00:43.562Z,11.12
2022-11-05T01:01:43.710Z,11.12
2022-11-05T01:02:43.666Z,11.12
2022-11-05T01:03:48.823Z,11.12
2022-11-05T01:04:43.512Z,11.12
2022-11-05T01:05:43.502Z,11.14
2022-11-05T01:06:43.491Z,11.14
2022-11-05T01:07:43.480Z,11.14
2022-11-05T01:08:43.471Z,11.12
2022-11-05T01:09:43.456Z,11.11
2022-11-05T01:10:43.452Z,11.10
2022-11-05T01:11:43.434Z,11.11
2022-11-05T01:12:43.430Z,11.08
2022-11-05T01:13:43.411Z,11.10
2022-11-05T01:14:43.423Z,11.08
2022-11-05T01:15:43.391Z,11.10
2022-11-05T01:16:43.378Z,11.08
2022-11-05T01:17:43.371Z,11.07
2022-11-05T01:18:43.356Z,11.04
2022-11-05T01:19:45.346Z,11.04
2022-11-05T01:20:43.338Z,11.03
2022-11-05T01:21:43.330Z,11.03
2022-11-05T01:22:43.312Z,11.02
2022-11-05T01:23:43.300Z,11.03
2022-11-05T01:24:43.290Z,11.04
2022-11-05T01:25:43.279Z,11.04
2022-11-05T01:26:43.265Z,11.07
2022-11-05T01:27:43.253Z,11.04
2022-11-05T01:28:43.313Z,11.00
2022-11-05T01:29:43.231Z,11.00
2022-11-05T01:30:43.241Z,11.02
2022-11-05T01:31:43.208Z,11.04
2022-11-05T01:32:43.201Z,11.04
2022-11-05T01:33:43.188Z,11.02
2022-11-05T01:34:43.176Z,11.03
2022-11-05T01:35:43.205Z,11.02
2022-11-05T01:36:43.253Z,11.04
2022-11-05T01:37:43.142Z,11.02
2022-11-05T01:38:43.133Z,11.04
2022-11-05T01:39:43.124Z,11.03
2022-11-05T01:40:43.112Z,11.00
2022-11-05T01:41:43.105Z,11.00
2022-11-05T01:42:43.090Z,10.99
2022-11-05T01:43:43.081Z,10.96
2022-11-05T01:44:43.063Z,10.96
2022-11-05T01:45:43.051Z,10.97
2022-11-05T01:46:43.067Z,10.97
2022-11-05T01:47:43.037Z,10.97
2022-11-05T01:48:43.025Z,10.99
2022-11-05T01:49:43.007Z,10.99
2022-11-05T01:50:42.994Z,11.02
2022-11-05T01:51:42.986Z,11.00
2022-11-05T01:52:42.973Z,11.02
2022-11-05T01:53:42.964Z,11.03
2022-11-05T01:54:42.949Z,11.02
2022-11-05T01:55:42.952Z,10.97
2022-11-05T01:56:42.928Z,10.93
2022-11-05T01:57:42.918Z,10.92
2022-11-05T01:58:42.904Z,10.90
2022-11-05T01:59:42.893Z,10.90
2022-11-05T02:00:42.887Z,10.89
2022-11-05T02:01:43.057Z,10.89
2022-11-05T02:02:43.054Z,10.86
2022-11-05T02:03:42.849Z,10.90
2022-11-05T02:04:42.839Z,10.86
2022-11-05T02:05:42.828Z,10.90
2022-11-05T02:06:42.820Z,10.90
2022-11-05T02:07:42.803Z,10.93
2022-11-05T02:08:42.797Z,10.92
2022-11-05T02:09:42.782Z,10.92
2022-11-05T02:10:42.789Z,10.93
2022-11-05T02:11:42.770Z,10.94
2022-11-05T02:12:42.781Z,10.93
2022-11-05T02:13:42.739Z,10.93
2022-11-05T02:14:42.735Z,10.92
2022-11-05T02:15:42.722Z,10.92
2022-11-05T02:16:42.702Z,10.89
2022-11-05T02:17:42.701Z,10.86
2022-11-05T02:18:42.715Z,10.84
2022-11-05T02:19:42.669Z,10.81
2022-11-05T02:20:44.815Z,10.78
2022-11-05T02:21:42.651Z,10.78
2022-11-05T02:22:42.635Z,10.78
2022-11-05T02:23:42.624Z,10.78
2022-11-05T02:24:42.611Z,10.79
2022-11-05T02:25:42.602Z,10.81
2022-11-05T02:26:42.595Z,10.82
2022-11-05T02:27:42.578Z,10.82
2022-11-05T02:28:42.568Z,10.77
2022-11-05T02:29:42.557Z,10.75
2022-11-05T02:30:42.552Z,10.77
2022-11-05T02:31:42.535Z,10.77
2022-11-05T02:32:42.528Z,10.77
2022-11-05T02:33:42.511Z,10.78
2022-11-05T02:34:42.528Z,10.74
2022-11-05T02:35:42.487Z,10.72
2022-11-05T02:36:42.476Z,10.71
2022-11-05T02:37:42.465Z,10.69
2022-11-05T02:38:42.463Z,10.66
2022-11-05T02:39:42.447Z,10.67
2022-11-05T02:40:42.438Z,10.67
2022-11-05T02:41:42.419Z,10.69
2022-11-05T02:42:42.408Z,10.67
2022-11-05T02:43:42.399Z,10.67
2022-11-05T02:44:42.387Z,10.66
2022-11-05T02:45:42.381Z,10.64
2022-11-05T02:46:42.363Z,10.63
2022-11-05T02:47:42.352Z,10.60
2022-11-05T02:48:42.341Z,10.57
2022-11-05T02:49:42.332Z,10.56
2022-11-05T02:50:42.344Z,10.56
2022-11-05T02:51:42.308Z,10.54
2022-11-05T02:52:42.300Z,10.57
2022-11-05T02:53:42.289Z,10.56
2022-11-05T02:54:42.271Z,10.56
2022-11-05T02:55:42.262Z,10.51
2022-11-05T02:56:42.249Z,10.46
2022-11-05T02:57:42.242Z,10.46
2022-11-05T02:58:44.226Z,10.45
2022-11-05T02:59:42.221Z,10.42
2022-11-05T03:00:42.208Z,10.42
2022-11-05T03:01:42.353Z,10.43
2022-11-05T03:02:42.366Z,10.43
2022-11-05T03:03:42.172Z,10.43
2022-11-05T03:04:42.159Z,10.46
2022-11-05T03:05:42.150Z,10.45
2022-11-05T03:06:42.245Z,10.43
2022-11-05T03:07:42.127Z,10.41
2022-11-05T03:08:42.128Z,10.42
2022-11-05T03:09:42.106Z,10.42
2022-11-05T03:10:42.096Z,10.41
2022-11-05T03:11:42.079Z,10.39
2022-11-05T03:12:42.069Z,10.36
2022-11-05T03:13:42.057Z,10.35
2022-11-05T03:14:42.053Z,10.38
2022-11-05T03:15:42.035Z,10.36
2022-11-05T03:16:42.028Z,10.35
2022-11-05T03:17:42.015Z,10.36
2022-11-05T03:18:42.006Z,10.35
2022-11-05T03:19:41.990Z,10.35
2022-11-05T03:20:41.983Z,10.34
2022-11-05T03:21:41.967Z,10.28
2022-11-05T03:22:41.976Z,10.26
2022-11-05T03:23:41.948Z,10.26
2022-11-05T03:24:41.934Z,10.23
2022-11-05T03:25:41.921Z,10.21
2022-11-05T03:26:41.910Z,10.24
2022-11-05T03:27:41.899Z,10.24
2022-11-05T03:28:41.889Z,10.26
2022-11-05T03:29:41.875Z,10.24
2022-11-05T03:30:41.874Z,10.27
2022-11-05T03:31:41.853Z,10.28
2022-11-05T03:32:41.841Z,10.28
2022-11-05T03:33:41.834Z,10.26
2022-11-05T03:34:41.820Z,10.23
2022-11-05T03:35:41.812Z,10.20
2022-11-05T03:36:41.797Z,10.21
2022-11-05T03:37:41.789Z,10.21
2022-11-05T03:38:41.807Z,10.20
2022-11-05T03:39:41.761Z,10.18
2022-11-05T03:40:41.753Z,10.18
2022-11-05T03:41:41.744Z,10.18
2022-11-05T03:42:41.733Z,10.18
2022-11-05T03:43:41.721Z,10.17
2022-11-05T03:44:41.709Z,10.17
2022-11-05T03:45:41.695Z,10.20
2022-11-05T03:46:41.686Z,10.18
2022-11-05T03:47:41.679Z,10.18
2022-11-05T03:48:41.743Z,10.12
2022-11-05T03:49:41.655Z,10.10
2022-11-05T03:50:41.843Z,10.10
2022-11-05T03:51:41.627Z,10.10
2022-11-05T03:52:41.621Z,10.12
2022-11-05T03:53:41.604Z,10.10
2022-11-05T03:54:41.619Z,10.14
2022-11-05T03:55:41.592Z,10.16
2022-11-05T03:56:41.570Z,10.18
2022-11-05T03:57:41.568Z,10.18
2022-11-05T03:58:41.557Z,10.18
2022-11-05T03:59:41.537Z,10.17
2022-11-05T04:00:41.529Z,10.17
2022-11-05T04:01:41.605Z,10.16
2022-11-05T04:02:41.654Z,10.14
2022-11-05T04:03:41.493Z,10.12
2022-11-05T04:04:41.489Z,10.10
2022-11-05T04:05:41.469Z,10.10
2022-11-05T04:06:41.458Z,10.10
2022-11-05T04:07:41.449Z,10.10
2022-11-05T04:08:41.436Z,10.12
2022-11-05T04:09:41.427Z,10.12
2022-11-05T04:10:41.437Z,10.10
2022-11-05T04:11:41.404Z,10.12
2022-11-05T04:12:41.390Z,10.16
2022-11-05T04:13:41.382Z,10.17
2022-11-05T04:14:41.369Z,10.18
2022-11-05T04:15:41.361Z,10.18
2022-11-05T04:16:41.349Z,10.17
2022-11-05T04:17:41.340Z,10.14
2022-11-05T04:18:41.333Z,10.10
2022-11-05T04:19:41.312Z,10.09
2022-11-05T04:20:41.308Z,10.08
2022-11-05T04:21:41.292Z,10.06
2022-11-05T04:22:41.288Z,10.08
2022-11-05T04:23:41.274Z,10.10
2022-11-05T04:24:41.260Z,10.12
2022-11-05T04:25:41.248Z,10.12
2022-11-05T04:26:41.264Z,10.12
2022-11-05T04:27:41.230Z,10.08
2022-11-05T04:28:41.212Z,10.06
2022-11-05T04:29:41.201Z,10.05
2022-11-05T04:30:41.191Z,10.05
2022-11-05T04:31:41.187Z,10.03
2022-11-05T04:32:41.175Z,10.03
2022-11-05T04:33:41.160Z,10.01
2022-11-05T04:34:41.154Z,10.01
2022-11-05T04:35:41.136Z,9.99
2022-11-05T04:36:41.123Z,10.01
2022-11-05T04:37:41.112Z,10.01
2022-11-05T04:38:41.102Z,10.01
2022-11-05T04:39:41.090Z,10.03
2022-11-05T04:40:41.078Z,10.05
2022-11-05T04:41:41.066Z,10.05
2022-11-05T04:42:41.081Z,10.05
2022-11-05T04:43:41.051Z,10.05
2022-11-05T04:44:41.032Z,10.01
2022-11-05T04:45:41.027Z,9.99
2022-11-05T04:46:41.011Z,9.99
2022-11-05T04:47:40.999Z,9.98
2022-11-05T04:48:40.988Z,9.96
2022-11-05T04:49:40.976Z,9.96
2022-11-05T04:50:40.964Z,9.94
2022-11-05T04:51:40.954Z,9.96
2022-11-05T04:52:40.944Z,9.96
2022-11-05T04:53:40.933Z,9.96
2022-11-05T04:54:40.921Z,9.96
2022-11-05T04:55:40.916Z,9.96
2022-11-05T04:56:40.896Z,9.96
2022-11-05T04:57:40.889Z,9.94
2022-11-05T04:58:40.901Z,9.93
2022-11-05T04:59:40.866Z,9.93
2022-11-05T05:00:41.045Z,9.91
2022-11-05T05:01:41.018Z,9.91
2022-11-05T05:02:40.836Z,9.91
2022-11-05T05:03:40.820Z,9.94
2022-11-05T05:04:40.813Z,9.96
2022-11-05T05:05:40.796Z,9.94
2022-11-05T05:06:40.789Z,9.91
2022-11-05T05:07:40.781Z,9.90
2022-11-05T05:08:40.763Z,9.88
2022-11-05T05:09:40.754Z,9.85
2022-11-05T05:10:40.747Z,9.85
2022-11-05T05:11:40.729Z,9.83
2022-11-05T05:12:40.719Z,9.84
2022-11-05T05:13:40.709Z,9.84
2022-11-05T05:14:40.719Z,9.83
2022-11-05T05:15:40.690Z,9.84
2022-11-05T05:16:40.675Z,9.84
2022-11-05T05:17:40.664Z,9.84
2022-11-05T05:18:45.115Z,9.84
2022-11-05T05:19:40.641Z,9.81
2022-11-05T05:20:40.630Z,9.83
2022-11-05T05:21:40.670Z,9.83
2022-11-05T05:22:40.607Z,9.84
2022-11-05T05:23:40.597Z,9.84
2022-11-05T05:24:40.588Z,9.84
2022-11-05T05:25:40.577Z,9.83
2022-11-05T05:26:40.561Z,9.84
2022-11-05T05:27:40.552Z,9.83
2022-11-05T05:28:40.539Z,9.81
2022-11-05T05:29:40.529Z,9.81
2022-11-05T05:30:40.540Z,9.83
2022-11-05T05:31:40.506Z,9.80
2022-11-05T05:32:40.493Z,9.81
2022-11-05T05:33:40.488Z,9.77
2022-11-05T05:34:40.472Z,9.77
2022-11-05T05:35:40.467Z,9.74
2022-11-05T05:36:40.448Z,9.72
2022-11-05T05:37:40.438Z,9.69
2022-11-05T05:38:40.429Z,9.72
2022-11-05T05:39:40.415Z,9.72
2022-11-05T05:40:40.403Z,9.74
2022-11-05T05:41:40.393Z,9.72
2022-11-05T05:42:43.373Z,9.71
2022-11-05T05:43:40.371Z,9.69
2022-11-05T05:44:40.359Z,9.62
2022-11-05T05:45:40.352Z,9.61
2022-11-05T05:46:40.363Z,9.61
2022-11-05T05:47:40.325Z,9.61
2022-11-05T05:48:40.318Z,9.59
2022-11-05T05:49:40.302Z,9.62
2022-11-05T05:50:40.290Z,9.61
2022-11-05T05:51:40.295Z,9.56
2022-11-05T05:52:40.271Z,9.56
2022-11-05T05:53:40.259Z,9.53
2022-11-05T05:54:42.903Z,9.51
2022-11-05T05:55:42.234Z,9.51
2022-11-05T05:56:40.230Z,9.51
2022-11-05T05:57:40.213Z,9.50
2022-11-05T05:58:40.201Z,9.49
2022-11-05T05:59:40.194Z,9.49
2022-11-05T06:00:40.177Z,9.47
2022-11-05T06:01:42.351Z,9.49
2022-11-05T06:02:40.396Z,9.49
2022-11-05T06:03:40.149Z,9.44
2022-11-05T06:04:40.142Z,9.41
2022-11-05T06:05:42.124Z,9.40
2022-11-05T06:06:40.116Z,9.39
2022-11-05T06:07:40.121Z,9.39
2022-11-05T06:08:40.092Z,9.36
2022-11-05T06:09:40.079Z,9.35
2022-11-05T06:10:40.174Z,9.29
2022-11-05T06:11:40.059Z,9.31
2022-11-05T06:12:40.049Z,9.31
2022-11-05T06:13:40.043Z,9.33
2022-11-05T06:14:40.023Z,9.33
2022-11-05T06:15:42.011Z,9.32
2022-11-05T06:16:40.005Z,9.32
2022-11-05T06:17:40.092Z,9.31
2022-11-05T06:18:40.007Z,9.29
2022-11-05T06:19:39.970Z,9.32
2022-11-05T06:20:39.954Z,9.33
2022-11-05T06:21:39.959Z,9.33
2022-11-05T06:22:39.931Z,9.35
2022-11-05T06:23:39.922Z,9.35
2022-11-05T06:24:39.910Z,9.36
2022-11-05T06:25:41.408Z,9.39
2022-11-05T06:26:39.888Z,9.40
2022-11-05T06:27:39.875Z,9.43
2022-11-05T06:28:39.866Z,9.44
2022-11-05T06:29:39.859Z,9.43
2022-11-05T06:30:41.842Z,9.43
2022-11-05T06:31:39.832Z,9.40
2022-11-05T06:32:39.820Z,9.39
2022-11-05T06:33:39.810Z,9.36
2022-11-05T06:34:39.819Z,9.33
2022-11-05T06:35:39.788Z,9.35
2022-11-05T06:36:39.777Z,9.35
2022-11-05T06:37:39.762Z,9.35
2022-11-05T06:38:39.758Z,9.35
2022-11-05T06:39:39.744Z,9.35
2022-11-05T06:40:39.729Z,9.32
2022-11-05T06:42:04.038Z,9.33
2022-11-05T06:42:39.706Z,9.36
2022-11-05T06:43:39.699Z,9.40
2022-11-05T06:44:39.682Z,9.41
2022-11-05T06:45:39.678Z,9.40
2022-11-05T06:46:42.261Z,9.41
2022-11-05T06:47:39.658Z,9.41
2022-11-05T06:48:39.637Z,9.41
2022-11-05T06:49:39.630Z,9.46
2022-11-05T06:50:39.640Z,9.44
2022-11-05T06:51:39.604Z,9.43
2022-11-05T06:52:41.279Z,9.44
2022-11-05T06:53:39.586Z,9.47
2022-11-05T06:54:39.573Z,9.49
2022-11-05T06:55:39.571Z,9.50
2022-11-05T06:56:39.552Z,9.49
2022-11-05T06:57:39.538Z,9.44
2022-11-05T06:58:39.535Z,9.41
2022-11-05T06:59:39.513Z,9.43
2022-11-05T07:00:39.574Z,9.43
2022-11-05T07:01:39.589Z,9.44
2022-11-05T07:02:39.480Z,9.46
2022-11-05T07:03:39.473Z,9.47
2022-11-05T07:04:39.458Z,9.51
2022-11-05T07:05:39.448Z,9.47
2022-11-05T07:06:39.549Z,9.47
2022-11-05T07:07:39.424Z,9.46
2022-11-05T07:08:39.416Z,9.47
2022-11-05T07:09:39.409Z,9.46
2022-11-05T07:10:39.392Z,9.46
2022-11-05T07:11:39.387Z,9.49
2022-11-05T07:12:39.369Z,9.49
2022-11-05T07:13:39.360Z,9.49
2022-11-05T07:14:39.347Z,9.41
2022-11-05T07:15:39.343Z,9.39
2022-11-05T07:16:39.327Z,9.41
2022-11-05T07:17:39.313Z,9.44
2022-11-05T07:18:39.301Z,9.49
2022-11-05T07:19:39.344Z,9.51
2022-11-05T07:20:39.279Z,9.56
2022-11-05T07:21:39.271Z,9.59
2022-11-05T07:22:39.280Z,9.61
2022-11-05T07:23:39.246Z,9.61
2022-11-05T07:24:39.235Z,9.59
2022-11-05T07:25:39.222Z,9.61
2022-11-05T07:26:39.211Z,9.65
2022-11-05T07:27:39.203Z,9.68
2022-11-05T07:28:39.190Z,9.69
2022-11-05T07:29:39.180Z,9.76
2022-11-05T07:30:39.180Z,9.77
2022-11-05T07:31:39.154Z,9.84
2022-11-05T07:32:39.142Z,9.88
2022-11-05T07:33:39.136Z,9.91
2022-11-05T07:34:39.125Z,9.93
2022-11-05T07:35:39.109Z,9.93
2022-11-05T07:36:39.098Z,9.96
2022-11-05T07:37:39.090Z,9.96
2022-11-05T07:38:39.109Z,9.98
2022-11-05T07:39:39.065Z,9.99
2022-11-05T07:40:39.056Z,9.99
2022-11-05T07:41:39.045Z,10.05
2022-11-05T07:42:39.032Z,10.12
2022-11-05T07:43:39.020Z,10.23
2022-11-05T07:44:39.009Z,10.30
2022-11-05T07:45:38.999Z,10.31
2022-11-05T07:46:38.987Z,10.39
2022-11-05T07:47:38.981Z,10.51
2022-11-05T07:48:38.965Z,10.77
2022-11-05T07:49:38.955Z,11.00
2022-11-05T07:50:38.943Z,11.12
2022-11-05T07:51:38.938Z,11.19
2022-11-05T07:52:38.920Z,11.30
2022-11-05T07:53:44.095Z,11.43
2022-11-05T07:54:38.923Z,11.59
2022-11-05T07:55:38.887Z,11.71
2022-11-05T07:56:38.878Z,11.80
2022-11-05T07:57:38.863Z,11.94
2022-11-05T07:58:38.852Z,12.12
2022-11-05T07:59:38.844Z,12.27
2022-11-05T08:00:39.146Z,12.40
2022-11-05T08:01:39.131Z,12.49
2022-11-05T08:02:39.135Z,12.57
2022-11-05T08:03:38.934Z,12.63
2022-11-05T08:04:38.787Z,12.66
2022-11-05T08:05:38.773Z,12.66
2022-11-05T08:06:38.761Z,12.65
2022-11-05T08:07:38.765Z,12.57
2022-11-05T08:08:38.745Z,12.37
2022-11-05T08:09:38.736Z,12.13
2022-11-05T08:10:39.004Z,12.06
2022-11-05T08:11:38.705Z,12.09
2022-11-05T08:12:38.698Z,12.16
2022-11-05T08:13:38.685Z,12.24
2022-11-05T08:14:38.700Z,12.34
2022-11-05T08:15:38.660Z,12.39
2022-11-05T08:16:38.649Z,12.34
2022-11-05T08:17:38.642Z,12.34
2022-11-05T08:18:38.627Z,12.32
2022-11-05T08:19:38.613Z,12.21
2022-11-05T08:20:38.612Z,12.16
2022-11-05T08:21:38.598Z,12.14
2022-11-05T08:22:38.612Z,11.94
2022-11-05T08:23:38.571Z,11.79
2022-11-05T08:24:38.558Z,11.73
2022-11-05T08:25:38.547Z,11.73
2022-11-05T08:26:38.562Z,11.74
2022-11-05T08:27:38.529Z,11.89
2022-11-05T08:28:38.512Z,12.02
2022-11-05T08:29:38.502Z,11.98
2022-11-05T08:30:38.491Z,12.12
2022-11-05T08:31:38.479Z,12.34
2022-11-05T08:32:38.477Z,12.61
2022-11-05T08:33:38.456Z,12.83
2022-11-05T08:34:38.444Z,13.01
2022-11-05T08:35:38.446Z,13.24
2022-11-05T08:36:38.428Z,13.41
2022-11-05T08:37:38.411Z,13.71
2022-11-05T08:38:38.404Z,14.00
2022-11-05T08:39:38.386Z,14.15
2022-11-05T08:40:38.387Z,14.33
2022-11-05T08:41:38.364Z,14.59
2022-11-05T08:42:38.375Z,14.89
2022-11-05T08:43:38.347Z,15.26
2022-11-05T08:44:38.339Z,15.76
2022-11-05T08:45:38.645Z,16.23
2022-11-05T08:46:41.530Z,16.68
2022-11-05T08:47:38.294Z,17.14
2022-11-05T08:48:38.282Z,17.61
2022-11-05T08:49:38.273Z,17.98
2022-11-05T08:50:38.266Z,18.29
2022-11-05T08:51:38.249Z,18.43
2022-11-05T08:52:38.240Z,18.75
2022-11-05T08:53:38.225Z,19.03
2022-11-05T08:54:38.222Z,19.16
2022-11-05T08:55:38.213Z,19.06
2022-11-05T08:56:38.261Z,19.19
2022-11-05T08:57:38.181Z,19.33
2022-11-05T08:58:38.197Z,19.53
2022-11-05T08:59:38.165Z,19.78
2022-11-05T09:00:38.151Z,19.84
2022-11-05T09:01:38.302Z,19.81
2022-11-05T09:02:38.187Z,19.71
2022-11-05T09:03:38.116Z,19.61
2022-11-05T09:04:38.110Z,19.82
2022-11-05T09:05:38.091Z,20.15
2022-11-05T09:06:38.087Z,20.52
2022-11-05T09:07:38.067Z,20.85
2022-11-05T09:08:38.056Z,21.06
2022-11-05T09:09:38.050Z,21.13
2022-11-05T09:10:38.035Z,21.22
2022-11-05T09:12:10.091Z,21.45
2022-11-05T09:12:38.011Z,21.65
2022-11-05T09:13:38.016Z,21.82
2022-11-05T09:14:38.176Z,22.14
2022-11-05T09:15:37.978Z,22.48
2022-11-05T09:16:37.967Z,22.55
2022-11-05T09:17:37.959Z,22.77
2022-11-05T09:18:37.947Z,22.98
2022-11-05T09:19:39.911Z,23.21
2022-11-05T09:20:37.927Z,23.26
2022-11-05T09:21:37.911Z,23.06
2022-11-05T09:22:42.981Z,22.96
2022-11-05T09:23:37.890Z,22.92
2022-11-05T09:24:37.883Z,23.13
2022-11-05T09:25:37.864Z,23.35
2022-11-05T09:26:37.853Z,23.65
2022-11-05T09:27:37.841Z,23.75
2022-11-05T09:28:37.830Z,23.88
2022-11-05T09:29:37.819Z,23.97
2022-11-05T09:30:37.835Z,23.96
2022-11-05T09:31:37.796Z,23.68
2022-11-05T09:32:37.788Z,23.78
2022-11-05T09:33:37.774Z,23.84
2022-11-05T09:34:37.762Z,23.85
2022-11-05T09:35:37.757Z,23.84
2022-11-05T09:36:37.738Z,23.91
2022-11-05T09:37:37.729Z,23.99
2022-11-05T09:38:37.720Z,23.93
2022-11-05T09:39:37.706Z,23.90
2022-11-05T09:40:37.699Z,24.19
2022-11-05T09:41:37.688Z,24.36
2022-11-05T09:42:37.673Z,24.53
2022-11-05T09:43:37.661Z,24.73
2022-11-05T09:44:37.647Z,24.81
2022-11-05T09:45:37.642Z,24.90
2022-11-05T09:46:37.654Z,25.05
2022-11-05T09:47:37.621Z,25.27
2022-11-05T09:48:37.603Z,25.33
2022-11-05T09:49:37.595Z,25.26
2022-11-05T09:50:37.582Z,25.22
2022-11-05T09:51:37.576Z,25.07
2022-11-05T09:52:37.559Z,25.11
2022-11-05T09:53:37.556Z,25.21
2022-11-05T09:54:37.541Z,25.30
2022-11-05T09:55:37.530Z,25.17
2022-11-05T09:56:37.518Z,24.92
2022-11-05T09:57:37.503Z,24.90
2022-11-05T09:58:37.495Z,24.85
2022-11-05T09:59:37.486Z,24.77
2022-11-05T10:00:37.474Z,24.68
2022-11-05T10:01:37.630Z,24.75
2022-11-05T10:02:37.581Z,24.58
2022-11-05T10:03:37.452Z,24.58
2022-11-05T10:04:37.433Z,24.78
2022-11-05T10:05:37.482Z,24.92
2022-11-05T10:06:37.403Z,25.07
2022-11-05T10:07:37.391Z,25.13
2022-11-05T10:08:37.379Z,24.96
2022-11-05T10:09:37.401Z,25.13
2022-11-05T10:10:40.924Z,25.46
2022-11-05T10:11:37.347Z,25.27
2022-11-05T10:12:37.334Z,25.21
2022-11-05T10:13:37.332Z,25.42
2022-11-05T10:14:37.317Z,25.30
2022-11-05T10:15:37.303Z,25.21
2022-11-05T10:16:37.288Z,25.33
2022-11-05T10:17:39.164Z,25.58
2022-11-05T10:18:37.294Z,25.46
2022-11-05T10:19:37.264Z,25.56
2022-11-05T10:20:37.244Z,25.67
2022-11-05T10:22:04.345Z,25.71
2022-11-05T10:22:37.220Z,25.82
2022-11-05T10:23:37.209Z,25.64
2022-11-05T10:24:37.204Z,25.51
2022-11-05T10:25:37.187Z,25.46
2022-11-05T10:26:37.177Z,25.55
2022-11-05T10:27:37.170Z,25.61
2022-11-05T10:28:37.155Z,25.73
2022-11-05T10:29:37.148Z,26.03
2022-11-05T10:30:37.132Z,26.37
2022-11-05T10:31:37.137Z,26.57
2022-11-05T10:32:37.109Z,26.57
2022-11-05T10:33:37.101Z,26.82
2022-11-05T10:34:37.111Z,26.95
2022-11-05T10:35:37.081Z,26.66
2022-11-05T10:36:37.063Z,26.69
2022-11-05T10:37:40.662Z,26.93
2022-11-05T10:38:37.041Z,27.05
2022-11-05T10:39:37.032Z,27.07
2022-11-05T10:40:37.025Z,26.84
2022-11-05T10:41:37.010Z,26.20
2022-11-05T10:42:36.997Z,25.26
2022-11-05T10:43:36.987Z,24.48
2022-11-05T10:44:36.996Z,24.31
2022-11-05T10:45:36.965Z,24.70
2022-11-05T10:46:36.954Z,25.02
2022-11-05T10:47:36.947Z,25.29
2022-11-05T10:48:42.274Z,25.59
2022-11-05T10:49:36.921Z,25.70
2022-11-05T10:50:36.934Z,25.68
2022-11-05T10:51:36.899Z,25.68
2022-11-05T10:52:36.892Z,25.29
2022-11-05T10:53:36.876Z,25.30
2022-11-05T10:54:36.868Z,25.71
2022-11-05T10:55:36.862Z,25.49
2022-11-05T10:56:36.856Z,25.59
2022-11-05T10:57:36.845Z,26.01
2022-11-05T10:58:36.824Z,26.22
2022-11-05T10:59:36.810Z,26.40
2022-11-05T11:00:36.799Z,26.62
2022-11-05T11:01:36.965Z,26.69
2022-11-05T11:02:36.835Z,26.67
2022-11-05T11:03:36.766Z,26.47
2022-11-05T11:04:38.228Z,26.20
2022-11-05T11:05:36.750Z,26.07
2022-11-05T11:06:36.853Z,25.96
2022-11-05T11:07:36.722Z,25.88
2022-11-05T11:08:36.714Z,25.73
2022-11-05T11:09:36.710Z,25.52
2022-11-05T11:10:36.688Z,25.51
2022-11-05T11:11:36.677Z,25.75
2022-11-05T11:12:40.704Z,25.95
2022-11-05T11:13:36.655Z,25.98
2022-11-05T11:14:36.643Z,26.19
2022-11-05T11:15:36.633Z,26.70
2022-11-05T11:16:36.626Z,26.98
2022-11-05T11:17:36.611Z,26.77
2022-11-05T11:18:40.086Z,26.56
2022-11-05T11:19:36.590Z,26.47
2022-11-05T11:20:36.582Z,26.56
2022-11-05T11:21:36.566Z,26.72
2022-11-05T11:22:36.582Z,26.69
2022-11-05T11:23:36.543Z,26.48
2022-11-05T11:24:36.536Z,26.38
2022-11-05T11:25:36.520Z,26.48
2022-11-05T11:26:36.515Z,26.51
2022-11-05T11:27:36.499Z,26.64
2022-11-05T11:28:36.488Z,26.77
2022-11-05T11:29:36.488Z,26.67
2022-11-05T11:30:36.464Z,26.42
2022-11-05T11:31:36.455Z,26.40
2022-11-05T11:32:36.442Z,26.30
2022-11-05T11:33:36.461Z,26.51
2022-11-05T11:34:36.519Z,26.75
2022-11-05T11:35:36.407Z,26.88
2022-11-05T11:36:36.397Z,26.72
2022-11-05T11:37:36.389Z,26.75
2022-11-05T11:38:36.399Z,26.60
2022-11-05T11:39:36.364Z,26.51
2022-11-05T11:40:36.351Z,26.51
2022-11-05T11:41:36.346Z,26.51
2022-11-05T11:42:36.329Z,26.23
2022-11-05T11:43:36.320Z,26.07
2022-11-05T11:44:36.312Z,26.11
2022-11-05T11:45:36.295Z,26.23
2022-11-05T11:46:36.303Z,26.12
2022-11-05T11:47:36.275Z,25.90
2022-11-05T11:48:36.267Z,26.14
2022-11-05T11:49:36.251Z,26.23
2022-11-05T11:50:36.240Z,25.74
2022-11-05T11:51:36.237Z,25.25
2022-11-05T11:52:36.217Z,25.32
2022-11-05T11:53:36.208Z,25.15
2022-11-05T11:54:36.225Z,24.92
2022-11-05T11:55:36.184Z,24.85
2022-11-05T11:56:36.176Z,24.77
2022-11-05T11:57:36.171Z,24.58
2022-11-05T11:58:36.148Z,24.85
2022-11-05T12:00:06.488Z,25.15
2022-11-05T12:00:36.137Z,24.89
2022-11-05T12:01:42.196Z,24.40
2022-11-05T12:02:36.180Z,24.11
2022-11-05T12:03:36.093Z,23.77
2022-11-05T12:04:36.084Z,24.13
2022-11-05T12:05:36.073Z,24.01
2022-11-05T12:06:36.059Z,23.55
2022-11-05T12:07:36.049Z,23.72
2022-11-05T12:08:36.038Z,23.95
2022-11-05T12:09:36.028Z,24.23
2022-11-05T12:10:36.177Z,24.55
2022-11-05T12:11:36.009Z,24.75
2022-11-05T12:12:36.002Z,24.83
2022-11-05T12:13:35.981Z,24.59
2022-11-05T12:14:35.976Z,24.15
2022-11-05T12:15:35.959Z,24.04
2022-11-05T12:16:35.949Z,24.29
2022-11-05T12:17:35.936Z,24.25
2022-11-05T12:18:35.934Z,23.97
2022-11-05T12:19:35.923Z,23.96
2022-11-05T12:20:35.902Z,23.48
2022-11-05T12:21:52.073Z,22.96
2022-11-05T12:22:35.882Z,22.39
2022-11-05T12:23:35.880Z,21.99
2022-11-05T12:24:35.862Z,22.27
2022-11-05T12:25:35.850Z,22.52
2022-11-05T12:26:35.866Z,22.78
2022-11-05T12:27:35.834Z,22.42
2022-11-05T12:28:36.207Z,22.40
2022-11-05T12:29:36.237Z,22.70
2022-11-05T12:30:35.794Z,22.85
2022-11-05T12:31:35.785Z,22.78
2022-11-05T12:32:35.882Z,23.14
2022-11-05T12:33:35.759Z,23.18
2022-11-05T12:34:35.747Z,23.01
2022-11-05T12:35:35.737Z,23.17
2022-11-05T12:36:35.728Z,23.14
2022-11-05T12:37:35.719Z,22.67
2022-11-05T12:38:35.709Z,22.18
2022-11-05T12:39:35.692Z,21.82
2022-11-05T12:40:35.692Z,21.82
2022-11-05T12:41:35.670Z,21.65
2022-11-05T12:42:35.685Z,21.20
2022-11-05T12:43:35.648Z,20.85
2022-11-05T12:44:35.637Z,20.78
2022-11-05T12:45:35.625Z,21.00
2022-11-05T12:46:35.616Z,20.85
2022-11-05T12:47:35.609Z,20.70
2022-11-05T12:48:37.203Z,20.48
2022-11-05T12:49:35.589Z,20.34
2022-11-05T12:50:35.572Z,20.02
2022-11-05T12:51:35.580Z,19.84
2022-11-05T12:52:35.563Z,19.67
2022-11-05T12:53:35.537Z,19.58
2022-11-05T12:54:35.529Z,19.38
2022-11-05T12:55:35.516Z,19.18
2022-11-05T12:56:35.506Z,19.01
2022-11-05T12:57:35.494Z,18.98
2022-11-05T12:58:35.553Z,18.83